Accueil
METAR-TAF:

METAR-TAF

Aéroports :

Aéroport de Tindouf

Tindouf, Algérie

latitude: 27-40N, longitude: 008-08W, altitude: 431 m

Observation

Le bulletin a été fait il y a 26 minutes, à 10:00 UTC
Vent 3 kt de nord
Température 29°C
Pression 1016 hPa
Visibilité: 6000 m

METAR: DAOF 161000Z 35003KT 6000 NSC 29/// Q1016

Heure: 11:26 (10:26 UTC)

Prévision

Le bulletin a été fait il y a 2 heures et 26 minutes, à 08:00 UTC
Prévision valable du 16 à 09 UTC au 16 à 18 UTC
Vent 8 kt de ouest
Visibilité: 4000 m
brume sèche
Evoluant progressivement
du 16 à 10 UTC au 16 à 12 UTC
Visibilité: 6000 m

TAF: DAOF 160800Z 1609/1618 26008KT 4000 HZ NSC BECMG 1610/1612 6000 NSW

Observations et prévisions météorologiques de plus de 4000 aéroports (messages METAR et TAF).

Les stations disponibles sont représentées par des disques jaunes et rouges sur la carte.

Passer la souris dessus pour voir le nom de la station.

Cliquer dessus pour voir les observations et prévisions météorologiques.

Pour changer de carte: cliquez sur les boutons verts avec une croix noire pour zoomer, sur le bouton vert avec un tiret pour effectuer un zoom arrière, ou sur les flèches vertes pour les cartes adjacentes.


METAR-TAF: